sensor_id;sensor_type;location;lat;lon;timestamp;P1;durP1;ratioP1;P2;durP2;ratioP2
5876;SDS011;2964;42.144;24.730;2022-08-04T00:01:06;5.20;;;4.90;;
5876;SDS011;2964;42.144;24.730;2022-08-04T00:03:40;6.00;;;5.60;;
5876;SDS011;2964;42.144;24.730;2022-08-04T00:06:10;6.00;;;5.70;;
5876;SDS011;2964;42.144;24.730;2022-08-04T00:08:47;5.77;;;5.47;;
5876;SDS011;2964;42.144;24.730;2022-08-04T00:11:19;6.00;;;5.70;;
5876;SDS011;2964;42.144;24.730;2022-08-04T00:13:48;6.10;;;5.60;;
5876;SDS011;2964;42.144;24.730;2022-08-04T00:16:19;6.47;;;5.97;;
5876;SDS011;2964;42.144;24.730;2022-08-04T00:18:49;6.03;;;5.43;;
5876;SDS011;2964;42.144;24.730;2022-08-04T00:21:23;5.73;;;5.43;;
5876;SDS011;2964;42.144;24.730;2022-08-04T00:23:53;6.13;;;5.63;;
5876;SDS011;2964;42.144;24.730;2022-08-04T00:26:22;6.87;;;6.00;;
5876;SDS011;2964;42.144;24.730;2022-08-04T00:28:49;5.73;;;5.43;;
5876;SDS011;2964;42.144;24.730;2022-08-04T00:31:16;6.53;;;6.10;;
5876;SDS011;2964;42.144;24.730;2022-08-04T00:33:44;5.93;;;5.63;;
5876;SDS011;2964;42.144;24.730;2022-08-04T00:36:12;6.70;;;6.20;;
5876;SDS011;2964;42.144;24.730;2022-08-04T00:38:39;6.37;;;5.97;;
5876;SDS011;2964;42.144;24.730;2022-08-04T00:41:08;6.03;;;5.63;;
5876;SDS011;2964;42.144;24.730;2022-08-04T00:43:48;6.93;;;6.33;;
5876;SDS011;2964;42.144;24.730;2022-08-04T00:46:26;6.60;;;6.20;;
5876;SDS011;2964;42.144;24.730;2022-08-04T00:49:18;8.03;;;6.10;;
5876;SDS011;2964;42.144;24.730;2022-08-04T00:52:01;6.47;;;6.17;;
5876;SDS011;2964;42.144;24.730;2022-08-04T00:54:41;6.63;;;6.03;;
5876;SDS011;2964;42.144;24.730;2022-08-04T00:57:29;6.87;;;6.47;;
5876;SDS011;2964;42.144;24.730;2022-08-04T01:00:07;7.13;;;6.63;;
5876;SDS011;2964;42.144;24.730;2022-08-04T01:02:36;6.70;;;6.00;;
5876;SDS011;2964;42.144;24.730;2022-08-04T01:05:14;7.30;;;6.80;;
5876;SDS011;2964;42.144;24.730;2022-08-04T01:10:47;7.47;;;6.87;;
5876;SDS011;2964;42.144;24.730;2022-08-04T01:13:41;7.20;;;6.70;;
5876;SDS011;2964;42.144;24.730;2022-08-04T01:16:23;7.50;;;7.00;;
5876;SDS011;2964;42.144;24.730;2022-08-04T01:18:56;7.10;;;6.80;;
5876;SDS011;2964;42.144;24.730;2022-08-04T01:24:25;7.50;;;6.90;;
5876;SDS011;2964;42.144;24.730;2022-08-04T01:27:03;7.90;;;7.33;;
5876;SDS011;2964;42.144;24.730;2022-08-04T01:29:37;7.27;;;6.73;;
5876;SDS011;2964;42.144;24.730;2022-08-04T01:32:12;7.47;;;6.90;;
5876;SDS011;2964;42.144;24.730;2022-08-04T01:34:46;7.30;;;6.80;;
5876;SDS011;2964;42.144;24.730;2022-08-04T01:37:19;7.23;;;6.73;;
5876;SDS011;2964;42.144;24.730;2022-08-04T01:39:57;9.87;;;7.23;;
5876;SDS011;2964;42.144;24.730;2022-08-04T01:42:28;7.37;;;6.93;;
5876;SDS011;2964;42.144;24.730;2022-08-04T01:44:58;8.30;;;7.90;;
5876;SDS011;2964;42.144;24.730;2022-08-04T01:47:27;7.97;;;7.53;;
5876;SDS011;2964;42.144;24.730;2022-08-04T01:49:57;8.43;;;7.93;;
5876;SDS011;2964;42.144;24.730;2022-08-04T01:52:29;7.93;;;7.47;;
5876;SDS011;2964;42.144;24.730;2022-08-04T01:54:57;7.80;;;7.20;;
5876;SDS011;2964;42.144;24.730;2022-08-04T01:57:26;7.57;;;7.17;;
5876;SDS011;2964;42.144;24.730;2022-08-04T01:59:53;7.83;;;7.33;;
5876;SDS011;2964;42.144;24.730;2022-08-04T02:02:26;7.83;;;7.23;;
5876;SDS011;2964;42.144;24.730;2022-08-04T02:04:53;8.03;;;7.43;;
5876;SDS011;2964;42.144;24.730;2022-08-04T02:07:25;7.27;;;6.87;;
5876;SDS011;2964;42.144;24.730;2022-08-04T02:10:02;8.17;;;7.67;;
5876;SDS011;2964;42.144;24.730;2022-08-04T02:12:35;8.30;;;7.80;;
5876;SDS011;2964;42.144;24.730;2022-08-04T02:15:22;7.37;;;6.87;;
5876;SDS011;2964;42.144;24.730;2022-08-04T02:17:55;8.30;;;7.70;;
5876;SDS011;2964;42.144;24.730;2022-08-04T02:20:28;8.27;;;7.43;;
5876;SDS011;2964;42.144;24.730;2022-08-04T02:23:00;8.30;;;7.67;;
5876;SDS011;2964;42.144;24.730;2022-08-04T02:25:31;8.70;;;7.87;;
5876;SDS011;2964;42.144;24.730;2022-08-04T02:28:12;7.97;;;7.57;;
5876;SDS011;2964;42.144;24.730;2022-08-04T02:30:49;7.87;;;7.33;;
5876;SDS011;2964;42.144;24.730;2022-08-04T02:33:25;8.23;;;7.67;;
5876;SDS011;2964;42.144;24.730;2022-08-04T02:35:58;7.23;;;6.77;;
5876;SDS011;2964;42.144;24.730;2022-08-04T02:38:31;7.17;;;6.80;;
5876;SDS011;2964;42.144;24.730;2022-08-04T02:41:08;7.33;;;6.87;;
5876;SDS011;2964;42.144;24.730;2022-08-04T02:43:35;7.67;;;7.13;;
5876;SDS011;2964;42.144;24.730;2022-08-04T02:46:05;7.37;;;7.00;;
5876;SDS011;2964;42.144;24.730;2022-08-04T02:48:32;7.27;;;6.83;;
5876;SDS011;2964;42.144;24.730;2022-08-04T02:50:59;7.70;;;7.00;;
5876;SDS011;2964;42.144;24.730;2022-08-04T02:53:28;8.40;;;7.83;;
5876;SDS011;2964;42.144;24.730;2022-08-04T02:55:58;12.57;;;7.10;;
5876;SDS011;2964;42.144;24.730;2022-08-04T02:58:28;7.47;;;6.87;;
5876;SDS011;2964;42.144;24.730;2022-08-04T03:00:59;7.50;;;7.00;;
5876;SDS011;2964;42.144;24.730;2022-08-04T03:03:29;6.77;;;6.37;;
5876;SDS011;2964;42.144;24.730;2022-08-04T03:12:26;8.27;;;7.53;;
5876;SDS011;2964;42.144;24.730;2022-08-04T03:21:38;8.80;;;7.23;;
5876;SDS011;2964;42.144;24.730;2022-08-04T03:27:42;8.37;;;7.80;;
5876;SDS011;2964;42.144;24.730;2022-08-04T03:30:25;8.87;;;8.30;;
5876;SDS011;2964;42.144;24.730;2022-08-04T03:33:07;14.80;;;8.50;;
5876;SDS011;2964;42.144;24.730;2022-08-04T03:35:51;8.63;;;8.13;;
5876;SDS011;2964;42.144;24.730;2022-08-04T03:48:08;8.40;;;7.73;;
5876;SDS011;2964;42.144;24.730;2022-08-04T03:51:00;7.90;;;7.27;;
5876;SDS011;2964;42.144;24.730;2022-08-04T03:54:01;8.83;;;7.70;;
5876;SDS011;2964;42.144;24.730;2022-08-04T04:00:02;7.77;;;7.27;;
5876;SDS011;2964;42.144;24.730;2022-08-04T04:02:47;8.73;;;8.13;;
5876;SDS011;2964;42.144;24.730;2022-08-04T04:05:47;9.47;;;8.20;;
5876;SDS011;2964;42.144;24.730;2022-08-04T04:08:37;7.50;;;7.00;;
5876;SDS011;2964;42.144;24.730;2022-08-04T04:11:22;8.80;;;8.00;;
5876;SDS011;2964;42.144;24.730;2022-08-04T04:14:08;8.10;;;7.60;;
5876;SDS011;2964;42.144;24.730;2022-08-04T04:16:57;11.33;;;8.07;;
5876;SDS011;2964;42.144;24.730;2022-08-04T04:25:44;8.77;;;8.23;;
5876;SDS011;2964;42.144;24.730;2022-08-04T04:28:26;9.13;;;8.27;;
5876;SDS011;2964;42.144;24.730;2022-08-04T04:31:06;9.77;;;8.83;;
5876;SDS011;2964;42.144;24.730;2022-08-04T04:33:49;8.47;;;7.73;;
5876;SDS011;2964;42.144;24.730;2022-08-04T04:36:24;10.53;;;8.40;;
5876;SDS011;2964;42.144;24.730;2022-08-04T04:39:00;8.47;;;7.97;;
5876;SDS011;2964;42.144;24.730;2022-08-04T04:41:43;8.90;;;8.20;;
5876;SDS011;2964;42.144;24.730;2022-08-04T04:44:33;8.63;;;7.90;;
5876;SDS011;2964;42.144;24.730;2022-08-04T04:47:21;8.40;;;7.87;;
5876;SDS011;2964;42.144;24.730;2022-08-04T04:49:56;9.17;;;7.70;;
5876;SDS011;2964;42.144;24.730;2022-08-04T04:52:32;10.20;;;9.33;;
5876;SDS011;2964;42.144;24.730;2022-08-04T04:55:04;13.52;;;8.30;;
5876;SDS011;2964;42.144;24.730;2022-08-04T04:57:40;8.25;;;7.72;;
5876;SDS011;2964;42.144;24.730;2022-08-04T05:00:09;12.57;;;7.75;;
5876;SDS011;2964;42.144;24.730;2022-08-04T05:05:47;7.30;;;6.55;;
5876;SDS011;2964;42.144;24.730;2022-08-04T05:08:37;6.53;;;5.65;;
5876;SDS011;2964;42.144;24.730;2022-08-04T05:11:38;7.43;;;6.72;;
5876;SDS011;2964;42.144;24.730;2022-08-04T05:14:19;7.47;;;6.70;;
5876;SDS011;2964;42.144;24.730;2022-08-04T05:16:55;18.42;;;14.90;;
5876;SDS011;2964;42.144;24.730;2022-08-04T05:19:32;8.60;;;6.13;;
5876;SDS011;2964;42.144;24.730;2022-08-04T05:22:09;6.90;;;6.50;;
5876;SDS011;2964;42.144;24.730;2022-08-04T05:24:39;5.68;;;5.25;;
5876;SDS011;2964;42.144;24.730;2022-08-04T05:27:11;6.75;;;6.35;;
5876;SDS011;2964;42.144;24.730;2022-08-04T05:29:44;5.68;;;5.38;;
5876;SDS011;2964;42.144;24.730;2022-08-04T05:32:21;6.25;;;5.75;;
5876;SDS011;2964;42.144;24.730;2022-08-04T05:34:54;8.95;;;5.68;;
5876;SDS011;2964;42.144;24.730;2022-08-04T05:37:25;15.68;;;5.93;;
5876;SDS011;2964;42.144;24.730;2022-08-04T05:39:55;6.93;;;5.88;;
5876;SDS011;2964;42.144;24.730;2022-08-04T05:42:24;6.68;;;6.13;;
5876;SDS011;2964;42.144;24.730;2022-08-04T05:44:51;7.10;;;6.50;;
5876;SDS011;2964;42.144;24.730;2022-08-04T05:47:19;11.40;;;7.57;;
5876;SDS011;2964;42.144;24.730;2022-08-04T05:49:46;10.30;;;7.07;;
5876;SDS011;2964;42.144;24.730;2022-08-04T05:52:15;14.50;;;7.07;;
5876;SDS011;2964;42.144;24.730;2022-08-04T05:54:43;9.43;;;6.32;;
5876;SDS011;2964;42.144;24.730;2022-08-04T05:57:11;8.25;;;6.72;;
5876;SDS011;2964;42.144;24.730;2022-08-04T05:59:39;7.07;;;6.55;;
5876;SDS011;2964;42.144;24.730;2022-08-04T06:02:10;6.82;;;6.15;;
5876;SDS011;2964;42.144;24.730;2022-08-04T06:04:40;8.32;;;6.28;;
5876;SDS011;2964;42.144;24.730;2022-08-04T06:07:08;18.60;;;7.32;;
5876;SDS011;2964;42.144;24.730;2022-08-04T06:09:37;7.53;;;5.85;;
5876;SDS011;2964;42.144;24.730;2022-08-04T06:12:05;6.68;;;6.07;;
5876;SDS011;2964;42.144;24.730;2022-08-04T06:14:35;7.22;;;6.53;;
5876;SDS011;2964;42.144;24.730;2022-08-04T06:17:06;6.55;;;6.15;;
5876;SDS011;2964;42.144;24.730;2022-08-04T06:19:34;7.65;;;6.78;;
5876;SDS011;2964;42.144;24.730;2022-08-04T06:22:05;9.10;;;8.40;;
5876;SDS011;2964;42.144;24.730;2022-08-04T06:24:36;6.35;;;5.95;;
5876;SDS011;2964;42.144;24.730;2022-08-04T06:27:05;13.38;;;5.93;;
5876;SDS011;2964;42.144;24.730;2022-08-04T06:29:34;7.38;;;6.65;;
5876;SDS011;2964;42.144;24.730;2022-08-04T06:32:04;5.43;;;4.88;;
5876;SDS011;2964;42.144;24.730;2022-08-04T06:34:49;7.13;;;5.32;;
5876;SDS011;2964;42.144;24.730;2022-08-04T06:37:17;6.97;;;6.28;;
5876;SDS011;2964;42.144;24.730;2022-08-04T06:39:47;7.05;;;6.00;;
5876;SDS011;2964;42.144;24.730;2022-08-04T06:42:14;8.77;;;5.25;;
5876;SDS011;2964;42.144;24.730;2022-08-04T06:44:43;7.40;;;5.38;;
5876;SDS011;2964;42.144;24.730;2022-08-04T06:47:14;6.10;;;5.60;;
5876;SDS011;2964;42.144;24.730;2022-08-04T06:49:43;8.32;;;7.53;;
5876;SDS011;2964;42.144;24.730;2022-08-04T06:52:11;6.18;;;5.60;;
5876;SDS011;2964;42.144;24.730;2022-08-04T06:54:41;7.32;;;6.97;;
5876;SDS011;2964;42.144;24.730;2022-08-04T06:57:09;5.68;;;5.20;;
5876;SDS011;2964;42.144;24.730;2022-08-04T06:59:39;6.22;;;5.82;;
5876;SDS011;2964;42.144;24.730;2022-08-04T07:02:10;11.45;;;6.70;;
5876;SDS011;2964;42.144;24.730;2022-08-04T07:04:40;5.95;;;5.55;;
5876;SDS011;2964;42.144;24.730;2022-08-04T07:07:11;6.88;;;6.30;;
5876;SDS011;2964;42.144;24.730;2022-08-04T07:09:41;6.72;;;6.07;;
5876;SDS011;2964;42.144;24.730;2022-08-04T07:12:10;7.15;;;6.57;;
5876;SDS011;2964;42.144;24.730;2022-08-04T07:14:38;6.28;;;5.88;;
5876;SDS011;2964;42.144;24.730;2022-08-04T07:17:07;9.68;;;6.55;;
5876;SDS011;2964;42.144;24.730;2022-08-04T07:19:34;8.20;;;5.28;;
5876;SDS011;2964;42.144;24.730;2022-08-04T07:22:02;8.63;;;6.88;;
5876;SDS011;2964;42.144;24.730;2022-08-04T07:24:33;6.95;;;6.35;;
5876;SDS011;2964;42.144;24.730;2022-08-04T07:27:01;7.25;;;6.65;;
5876;SDS011;2964;42.144;24.730;2022-08-04T07:29:30;10.00;;;6.10;;
5876;SDS011;2964;42.144;24.730;2022-08-04T07:31:58;6.70;;;6.30;;
5876;SDS011;2964;42.144;24.730;2022-08-04T07:34:25;5.20;;;4.88;;
5876;SDS011;2964;42.144;24.730;2022-08-04T07:36:53;5.75;;;5.18;;
5876;SDS011;2964;42.144;24.730;2022-08-04T07:39:22;7.88;;;7.05;;
5876;SDS011;2964;42.144;24.730;2022-08-04T07:41:50;5.88;;;5.57;;
5876;SDS011;2964;42.144;24.730;2022-08-04T07:44:18;6.78;;;6.25;;
5876;SDS011;2964;42.144;24.730;2022-08-04T07:46:47;6.72;;;6.22;;
5876;SDS011;2964;42.144;24.730;2022-08-04T07:49:14;8.25;;;7.75;;
5876;SDS011;2964;42.144;24.730;2022-08-04T07:51:41;13.77;;;5.30;;
5876;SDS011;2964;42.144;24.730;2022-08-04T07:54:08;7.70;;;7.30;;
5876;SDS011;2964;42.144;24.730;2022-08-04T07:56:37;7.22;;;6.68;;
5876;SDS011;2964;42.144;24.730;2022-08-04T07:59:05;8.57;;;6.70;;
5876;SDS011;2964;42.144;24.730;2022-08-04T08:01:33;6.65;;;6.00;;
5876;SDS011;2964;42.144;24.730;2022-08-04T08:04:03;6.70;;;5.97;;
5876;SDS011;2964;42.144;24.730;2022-08-04T08:06:33;5.93;;;5.43;;
5876;SDS011;2964;42.144;24.730;2022-08-04T08:09:08;5.30;;;5.10;;
5876;SDS011;2964;42.144;24.730;2022-08-04T08:11:36;5.47;;;5.28;;
5876;SDS011;2964;42.144;24.730;2022-08-04T08:14:03;9.95;;;9.23;;
5876;SDS011;2964;42.144;24.730;2022-08-04T08:16:32;7.43;;;6.30;;
5876;SDS011;2964;42.144;24.730;2022-08-04T08:18:59;7.25;;;6.75;;
5876;SDS011;2964;42.144;24.730;2022-08-04T08:21:28;8.95;;;5.68;;
5876;SDS011;2964;42.144;24.730;2022-08-04T08:23:55;6.43;;;5.85;;
5876;SDS011;2964;42.144;24.730;2022-08-04T08:26:22;7.25;;;6.78;;
5876;SDS011;2964;42.144;24.730;2022-08-04T08:28:49;6.25;;;5.78;;
5876;SDS011;2964;42.144;24.730;2022-08-04T08:31:16;6.55;;;6.10;;
5876;SDS011;2964;42.144;24.730;2022-08-04T08:33:43;6.53;;;5.28;;
5876;SDS011;2964;42.144;24.730;2022-08-04T08:36:12;6.80;;;6.18;;
5876;SDS011;2964;42.144;24.730;2022-08-04T08:38:48;5.03;;;4.63;;
5876;SDS011;2964;42.144;24.730;2022-08-04T08:41:34;6.72;;;6.20;;
5876;SDS011;2964;42.144;24.730;2022-08-04T08:44:29;5.40;;;5.18;;
5876;SDS011;2964;42.144;24.730;2022-08-04T08:47:10;4.85;;;4.50;;
5876;SDS011;2964;42.144;24.730;2022-08-04T08:50:00;6.15;;;5.55;;
5876;SDS011;2964;42.144;24.730;2022-08-04T08:52:51;5.78;;;5.15;;
5876;SDS011;2964;42.144;24.730;2022-08-04T08:55:31;4.80;;;4.32;;
5876;SDS011;2964;42.144;24.730;2022-08-04T08:58:15;5.15;;;4.43;;
5876;SDS011;2964;42.144;24.730;2022-08-04T09:00:59;5.25;;;4.80;;
5876;SDS011;2964;42.144;24.730;2022-08-04T09:03:45;5.65;;;5.30;;
5876;SDS011;2964;42.144;24.730;2022-08-04T09:06:49;7.85;;;7.25;;
5876;SDS011;2964;42.144;24.730;2022-08-04T09:09:32;5.70;;;5.30;;
5876;SDS011;2964;42.144;24.730;2022-08-04T09:12:13;7.72;;;6.88;;
5876;SDS011;2964;42.144;24.730;2022-08-04T09:14:49;6.18;;;5.70;;
5876;SDS011;2964;42.144;24.730;2022-08-04T09:17:20;7.60;;;5.38;;
5876;SDS011;2964;42.144;24.730;2022-08-04T09:19:51;6.43;;;5.82;;
5876;SDS011;2964;42.144;24.730;2022-08-04T09:22:27;5.53;;;5.13;;
5876;SDS011;2964;42.144;24.730;2022-08-04T09:24:59;5.57;;;5.20;;
5876;SDS011;2964;42.144;24.730;2022-08-04T09:27:34;6.63;;;6.13;;
5876;SDS011;2964;42.144;24.730;2022-08-04T09:30:08;6.85;;;6.32;;
5876;SDS011;2964;42.144;24.730;2022-08-04T09:32:40;4.40;;;4.20;;
5876;SDS011;2964;42.144;24.730;2022-08-04T09:35:15;7.38;;;6.47;;
5876;SDS011;2964;42.144;24.730;2022-08-04T09:37:53;6.57;;;5.80;;
5876;SDS011;2964;42.144;24.730;2022-08-04T09:40:37;8.18;;;7.47;;
5876;SDS011;2964;42.144;24.730;2022-08-04T09:43:16;10.15;;;9.40;;
5876;SDS011;2964;42.144;24.730;2022-08-04T09:45:55;4.85;;;4.65;;
5876;SDS011;2964;42.144;24.730;2022-08-04T09:48:31;6.18;;;5.40;;
5876;SDS011;2964;42.144;24.730;2022-08-04T09:51:04;11.32;;;4.65;;
5876;SDS011;2964;42.144;24.730;2022-08-04T09:53:42;6.35;;;5.72;;
5876;SDS011;2964;42.144;24.730;2022-08-04T09:56:20;5.80;;;5.32;;
5876;SDS011;2964;42.144;24.730;2022-08-04T09:58:56;5.40;;;4.28;;
5876;SDS011;2964;42.144;24.730;2022-08-04T10:01:42;10.50;;;9.45;;
5876;SDS011;2964;42.144;24.730;2022-08-04T10:04:12;5.65;;;5.13;;
5876;SDS011;2964;42.144;24.730;2022-08-04T10:06:52;5.95;;;4.13;;
5876;SDS011;2964;42.144;24.730;2022-08-04T10:12:22;7.57;;;6.93;;
5876;SDS011;2964;42.144;24.730;2022-08-04T10:15:01;5.68;;;5.47;;
5876;SDS011;2964;42.144;24.730;2022-08-04T10:17:38;5.93;;;5.43;;
5876;SDS011;2964;42.144;24.730;2022-08-04T10:20:17;5.47;;;5.18;;
5876;SDS011;2964;42.144;24.730;2022-08-04T10:22:51;5.35;;;5.15;;
5876;SDS011;2964;42.144;24.730;2022-08-04T10:25:29;7.45;;;5.20;;
5876;SDS011;2964;42.144;24.730;2022-08-04T10:28:08;19.27;;;7.82;;
5876;SDS011;2964;42.144;24.730;2022-08-04T10:30:39;8.45;;;7.75;;
5876;SDS011;2964;42.144;24.730;2022-08-04T10:33:24;5.18;;;3.95;;
5876;SDS011;2964;42.144;24.730;2022-08-04T10:35:59;6.57;;;4.85;;
5876;SDS011;2964;42.144;24.730;2022-08-04T10:38:29;8.55;;;7.53;;
5876;SDS011;2964;42.144;24.730;2022-08-04T10:40:58;5.93;;;5.43;;
5876;SDS011;2964;42.144;24.730;2022-08-04T10:43:34;5.13;;;4.82;;
5876;SDS011;2964;42.144;24.730;2022-08-04T10:46:10;5.57;;;5.18;;
5876;SDS011;2964;42.144;24.730;2022-08-04T10:48:43;3.95;;;3.75;;
5876;SDS011;2964;42.144;24.730;2022-08-04T10:51:20;5.53;;;5.00;;
5876;SDS011;2964;42.144;24.730;2022-08-04T10:53:54;5.13;;;4.72;;
5876;SDS011;2964;42.144;24.730;2022-08-04T10:56:28;4.85;;;4.35;;
5876;SDS011;2964;42.144;24.730;2022-08-04T10:59:01;8.13;;;7.13;;
5876;SDS011;2964;42.144;24.730;2022-08-04T11:01:34;5.40;;;4.97;;
5876;SDS011;2964;42.144;24.730;2022-08-04T11:04:07;4.47;;;4.22;;
5876;SDS011;2964;42.144;24.730;2022-08-04T11:06:41;4.88;;;4.57;;
5876;SDS011;2964;42.144;24.730;2022-08-04T11:09:09;12.55;;;7.63;;
5876;SDS011;2964;42.144;24.730;2022-08-04T11:11:40;18.95;;;11.73;;
5876;SDS011;2964;42.144;24.730;2022-08-04T11:14:11;5.63;;;5.05;;
5876;SDS011;2964;42.144;24.730;2022-08-04T11:16:43;5.22;;;4.95;;
5876;SDS011;2964;42.144;24.730;2022-08-04T11:19:18;6.65;;;5.75;;
5876;SDS011;2964;42.144;24.730;2022-08-04T11:21:55;7.75;;;6.95;;
5876;SDS011;2964;42.144;24.730;2022-08-04T11:24:31;6.50;;;4.78;;
5876;SDS011;2964;42.144;24.730;2022-08-04T11:27:07;5.53;;;4.97;;
5876;SDS011;2964;42.144;24.730;2022-08-04T11:29:39;4.45;;;4.15;;
5876;SDS011;2964;42.144;24.730;2022-08-04T11:32:19;6.07;;;4.93;;
5876;SDS011;2964;42.144;24.730;2022-08-04T11:34:52;7.15;;;6.20;;
5876;SDS011;2964;42.144;24.730;2022-08-04T11:37:26;5.43;;;4.97;;
5876;SDS011;2964;42.144;24.730;2022-08-04T11:40:03;6.55;;;4.75;;
5876;SDS011;2964;42.144;24.730;2022-08-04T11:42:35;5.38;;;4.97;;
5876;SDS011;2964;42.144;24.730;2022-08-04T11:45:05;4.07;;;3.88;;
5876;SDS011;2964;42.144;24.730;2022-08-04T11:47:35;4.45;;;4.20;;
5876;SDS011;2964;42.144;24.730;2022-08-04T11:50:13;6.22;;;5.75;;
5876;SDS011;2964;42.144;24.730;2022-08-04T11:52:46;8.90;;;8.05;;
5876;SDS011;2964;42.144;24.730;2022-08-04T11:55:15;7.30;;;5.07;;
5876;SDS011;2964;42.144;24.730;2022-08-04T11:57:45;5.97;;;3.92;;
5876;SDS011;2964;42.144;24.730;2022-08-04T12:00:13;6.28;;;5.60;;
5876;SDS011;2964;42.144;24.730;2022-08-04T12:05:40;6.07;;;5.53;;
5876;SDS011;2964;42.144;24.730;2022-08-04T12:08:18;8.07;;;7.43;;
5876;SDS011;2964;42.144;24.730;2022-08-04T12:10:57;4.57;;;3.67;;
5876;SDS011;2964;42.144;24.730;2022-08-04T12:13:38;4.85;;;4.45;;
5876;SDS011;2964;42.144;24.730;2022-08-04T12:16:13;4.20;;;3.90;;
5876;SDS011;2964;42.144;24.730;2022-08-04T12:18:44;4.82;;;3.88;;
5876;SDS011;2964;42.144;24.730;2022-08-04T12:21:21;5.53;;;5.10;;
5876;SDS011;2964;42.144;24.730;2022-08-04T12:23:50;4.35;;;4.05;;
5876;SDS011;2964;42.144;24.730;2022-08-04T12:26:23;3.97;;;3.67;;
5876;SDS011;2964;42.144;24.730;2022-08-04T12:28:54;5.93;;;4.30;;
5876;SDS011;2964;42.144;24.730;2022-08-04T12:31:25;6.40;;;4.20;;
5876;SDS011;2964;42.144;24.730;2022-08-04T12:33:57;5.03;;;4.82;;
5876;SDS011;2964;42.144;24.730;2022-08-04T12:36:30;4.30;;;3.95;;
5876;SDS011;2964;42.144;24.730;2022-08-04T12:39:05;5.78;;;4.28;;
5876;SDS011;2964;42.144;24.730;2022-08-04T12:41:38;4.72;;;4.28;;
5876;SDS011;2964;42.144;24.730;2022-08-04T12:44:09;9.00;;;4.32;;
5876;SDS011;2964;42.144;24.730;2022-08-04T12:46:38;4.47;;;4.20;;
5876;SDS011;2964;42.144;24.730;2022-08-04T12:49:12;4.35;;;4.05;;
5876;SDS011;2964;42.144;24.730;2022-08-04T12:51:42;5.55;;;5.25;;
5876;SDS011;2964;42.144;24.730;2022-08-04T12:54:11;4.55;;;4.25;;
5876;SDS011;2964;42.144;24.730;2022-08-04T12:56:39;6.40;;;4.80;;
5876;SDS011;2964;42.144;24.730;2022-08-04T12:59:08;8.80;;;4.93;;
5876;SDS011;2964;42.144;24.730;2022-08-04T13:01:37;8.35;;;4.53;;
5876;SDS011;2964;42.144;24.730;2022-08-04T13:04:14;4.47;;;3.92;;
5876;SDS011;2964;42.144;24.730;2022-08-04T13:06:43;4.05;;;3.72;;
5876;SDS011;2964;42.144;24.730;2022-08-04T13:09:18;4.68;;;4.38;;
5876;SDS011;2964;42.144;24.730;2022-08-04T13:11:46;4.50;;;4.07;;
5876;SDS011;2964;42.144;24.730;2022-08-04T13:14:18;5.80;;;5.00;;
5876;SDS011;2964;42.144;24.730;2022-08-04T13:16:55;4.80;;;4.32;;
5876;SDS011;2964;42.144;24.730;2022-08-04T13:19:24;7.32;;;4.45;;
5876;SDS011;2964;42.144;24.730;2022-08-04T13:21:52;4.85;;;4.53;;
5876;SDS011;2964;42.144;24.730;2022-08-04T13:24:21;6.20;;;4.80;;
5876;SDS011;2964;42.144;24.730;2022-08-04T13:26:50;5.20;;;4.60;;
5876;SDS011;2964;42.144;24.730;2022-08-04T13:29:20;5.05;;;4.70;;
5876;SDS011;2964;42.144;24.730;2022-08-04T13:31:49;5.47;;;4.82;;
5876;SDS011;2964;42.144;24.730;2022-08-04T13:34:17;4.90;;;4.50;;
5876;SDS011;2964;42.144;24.730;2022-08-04T13:36:46;3.95;;;3.75;;
5876;SDS011;2964;42.144;24.730;2022-08-04T13:39:15;4.53;;;4.20;;
5876;SDS011;2964;42.144;24.730;2022-08-04T13:41:44;4.65;;;4.22;;
5876;SDS011;2964;42.144;24.730;2022-08-04T13:44:17;5.25;;;4.85;;
5876;SDS011;2964;42.144;24.730;2022-08-04T13:46:46;5.72;;;5.15;;
5876;SDS011;2964;42.144;24.730;2022-08-04T13:49:16;4.95;;;4.75;;
5876;SDS011;2964;42.144;24.730;2022-08-04T13:51:48;5.53;;;4.97;;
5876;SDS011;2964;42.144;24.730;2022-08-04T13:54:17;4.18;;;3.88;;
5876;SDS011;2964;42.144;24.730;2022-08-04T13:56:45;5.05;;;4.60;;
5876;SDS011;2964;42.144;24.730;2022-08-04T13:59:15;4.53;;;4.13;;
5876;SDS011;2964;42.144;24.730;2022-08-04T14:01:44;4.50;;;4.20;;
5876;SDS011;2964;42.144;24.730;2022-08-04T14:04:22;4.85;;;4.53;;
5876;SDS011;2964;42.144;24.730;2022-08-04T14:07:01;4.70;;;4.32;;
5876;SDS011;2964;42.144;24.730;2022-08-04T14:09:32;4.65;;;4.30;;
5876;SDS011;2964;42.144;24.730;2022-08-04T14:12:06;5.15;;;4.78;;
5876;SDS011;2964;42.144;24.730;2022-08-04T14:14:34;6.18;;;4.22;;
5876;SDS011;2964;42.144;24.730;2022-08-04T14:17:09;4.45;;;3.67;;
5876;SDS011;2964;42.144;24.730;2022-08-04T14:19:48;5.05;;;4.75;;
5876;SDS011;2964;42.144;24.730;2022-08-04T14:22:32;5.32;;;4.40;;
5876;SDS011;2964;42.144;24.730;2022-08-04T14:25:05;3.83;;;3.65;;
5876;SDS011;2964;42.144;24.730;2022-08-04T14:27:42;3.38;;;3.17;;
5876;SDS011;2964;42.144;24.730;2022-08-04T14:30:23;4.28;;;4.07;;
5876;SDS011;2964;42.144;24.730;2022-08-04T14:32:54;4.07;;;3.70;;
5876;SDS011;2964;42.144;24.730;2022-08-04T14:35:26;4.55;;;4.18;;
5876;SDS011;2964;42.144;24.730;2022-08-04T14:37:54;5.32;;;4.50;;
5876;SDS011;2964;42.144;24.730;2022-08-04T14:40:24;4.72;;;3.30;;
5876;SDS011;2964;42.144;24.730;2022-08-04T14:42:52;2.90;;;2.80;;
5876;SDS011;2964;42.144;24.730;2022-08-04T14:45:23;4.22;;;3.58;;
5876;SDS011;2964;42.144;24.730;2022-08-04T14:47:54;3.30;;;3.10;;
5876;SDS011;2964;42.144;24.730;2022-08-04T14:50:31;3.45;;;3.20;;
5876;SDS011;2964;42.144;24.730;2022-08-04T14:53:05;4.07;;;3.28;;
5876;SDS011;2964;42.144;24.730;2022-08-04T14:55:34;4.07;;;3.92;;
5876;SDS011;2964;42.144;24.730;2022-08-04T14:58:02;3.67;;;3.35;;
5876;SDS011;2964;42.144;24.730;2022-08-04T15:00:30;3.22;;;3.03;;
5876;SDS011;2964;42.144;24.730;2022-08-04T15:03:00;3.95;;;2.90;;
5876;SDS011;2964;42.144;24.730;2022-08-04T15:05:28;3.53;;;3.08;;
5876;SDS011;2964;42.144;24.730;2022-08-04T15:07:57;3.38;;;3.17;;
5876;SDS011;2964;42.144;24.730;2022-08-04T15:10:26;4.18;;;3.92;;
5876;SDS011;2964;42.144;24.730;2022-08-04T15:12:53;4.13;;;3.92;;
5876;SDS011;2964;42.144;24.730;2022-08-04T15:15:20;4.68;;;4.15;;
5876;SDS011;2964;42.144;24.730;2022-08-04T15:17:48;3.85;;;3.22;;
5876;SDS011;2964;42.144;24.730;2022-08-04T15:20:16;3.83;;;3.63;;
5876;SDS011;2964;42.144;24.730;2022-08-04T15:22:43;3.75;;;3.65;;
5876;SDS011;2964;42.144;24.730;2022-08-04T15:25:10;3.58;;;3.35;;
5876;SDS011;2964;42.144;24.730;2022-08-04T15:27:38;4.00;;;3.65;;
5876;SDS011;2964;42.144;24.730;2022-08-04T15:30:07;4.28;;;3.88;;
5876;SDS011;2964;42.144;24.730;2022-08-04T15:32:37;4.13;;;3.60;;
5876;SDS011;2964;42.144;24.730;2022-08-04T15:35:08;4.47;;;4.22;;
5876;SDS011;2964;42.144;24.730;2022-08-04T15:37:44;13.25;;;3.78;;
5876;SDS011;2964;42.144;24.730;2022-08-04T15:40:21;4.65;;;4.45;;
5876;SDS011;2964;42.144;24.730;2022-08-04T15:43:01;4.72;;;4.15;;
5876;SDS011;2964;42.144;24.730;2022-08-04T15:45:46;3.90;;;3.45;;
5876;SDS011;2964;42.144;24.730;2022-08-04T15:51:09;3.50;;;3.30;;
5876;SDS011;2964;42.144;24.730;2022-08-04T15:56:47;3.65;;;3.45;;
5876;SDS011;2964;42.144;24.730;2022-08-04T15:59:16;6.15;;;4.05;;
5876;SDS011;2964;42.144;24.730;2022-08-04T16:02:34;5.65;;;5.20;;
5876;SDS011;2964;42.144;24.730;2022-08-04T16:08:09;4.53;;;4.15;;
5876;SDS011;2964;42.144;24.730;2022-08-04T16:10:40;6.65;;;4.80;;
5876;SDS011;2964;42.144;24.730;2022-08-04T16:13:09;17.23;;;5.15;;
5876;SDS011;2964;42.144;24.730;2022-08-04T16:15:40;8.85;;;4.78;;
5876;SDS011;2964;42.144;24.730;2022-08-04T16:18:10;4.85;;;4.47;;
5876;SDS011;2964;42.144;24.730;2022-08-04T16:20:45;4.95;;;4.18;;
5876;SDS011;2964;42.144;24.730;2022-08-04T16:23:21;4.95;;;3.80;;
5876;SDS011;2964;42.144;24.730;2022-08-04T16:26:05;6.60;;;3.92;;
5876;SDS011;2964;42.144;24.730;2022-08-04T16:28:35;7.50;;;4.60;;
5876;SDS011;2964;42.144;24.730;2022-08-04T16:31:06;4.65;;;4.30;;
5876;SDS011;2964;42.144;24.730;2022-08-04T16:33:34;5.43;;;5.13;;
5876;SDS011;2964;42.144;24.730;2022-08-04T16:36:02;8.15;;;5.05;;
5876;SDS011;2964;42.144;24.730;2022-08-04T16:38:31;5.47;;;5.18;;